Home > Products > Valid Products > SSM

000
SMZS01 NSTU 261755
SSMPPG
AAXX 26184
91765 11467 89904 10282 20243 30071 40075 52019 60021 70282 84871
333 56999 70074 555 92618=




000
SMZS01 NSTU 261155
SSMPPG
AAXX 26124
91765 32466 69904 10278 20240 30056 40059 56012 85870 333 10282
5699/ 59007 70058 555 92612=




000
SMZS01 NSTU 260559
SSMPPG
AAXX 26064
91765 11569 83411 10275 20226 30047 40051 51003 69951 70282 82478
333 56899 70310 555 92606=




000
SMZS01 NSTU 252359
SSMPPG
AAXX 26004
91765 11569 83609 10274 20232 30058 40061 57017 60314 70282 8482/
333 20242 5689/ 58003 70310 555 92600




000
SMZS01 NSTU 251759
SSMPPG
AAXX 25184
91765 11469 89903 10271 20231 30071 40075 52019 69901 70282 84128
333 56999 70257 555 92518=




000
SMZS01 NSTU 251227
SSMPPG
AAXX 25124
91765 11466 80000 10246 20229 30063 40066 56014 60251 79198 8637/
333 10298 56999 59003 70257 555 92512=




000
SMZS01 NSTU 250555
SSMPPG
AAXX 25064
91765 11567 83603 10278 20237 30058 40061 52008 69951 70282 84478
333 56899 70005 555 92506=




000
SMZS01 NSTU 242354
SSMPPG
AAXX 25004
91765 12469 80608 10298 20241 30054 40058 56017 69904 82178 333
20247 56199 59020 555 92500=




000
SMZS01 NSTU 241802
SSMPPG
AAXX 24184
91765 32469 80000 10260 20239 30071 40075 52015 82178 333 56099
70013 555 92418=




000
SMZS01 NSTU 241156
SSMPPG
AAXX 24124
91765 32466 70000 10249 20231 30066 40069 56020 82170 333 10292
5699/ 59017 70254 555 92412=




000
SMZS01 NSTU 240553
SSMPPG
AAXX 24064
91765 11466 89904 10263 20229 30076 40080 52008 69901 70282 84127
333 56999 70752 555 92406=




000
SMZS01 NSTU 232356
SSMPPG
AAXX 24004
91765 11469 89902 10288 20227 30075 40078 56017 60754 70282 83127
333 20236 56999 59010 70754 555 92400=




    US Dept of Commerce
    National Oceanic and Atmospheric Administration
    National Weather Service
    1325 East West Highway
    Silver Spring, MD 20910
    Page Author: NWS Internet Services Team
Disclaimer
Information Quality
Credits
Glossary
Privacy Policy
Freedom of Information Act (FOIA)
About Us
Career Opportunities